createdAt,value
2022-09-13T00:00:47.754Z,9.80
2022-09-13T00:04:42.295Z,8.50
2022-09-13T00:08:29.883Z,10.90
2022-09-13T00:12:07.883Z,11.90
2022-09-13T00:15:55.479Z,12.40
2022-09-13T00:19:26.777Z,15.30
2022-09-13T00:23:12.045Z,14.90
2022-09-13T00:26:59.626Z,16.70
2022-09-13T00:30:46.671Z,10.60
2022-09-13T00:34:17.745Z,16.80
2022-09-13T00:38:05.482Z,14.00
2022-09-13T00:41:53.063Z,12.90
2022-09-13T00:45:52.487Z,13.50
2022-09-13T00:49:42.866Z,9.40
2022-09-13T00:53:24.892Z,14.30
2022-09-13T00:57:15.274Z,14.80
2022-09-13T01:00:55.826Z,17.10
2022-09-13T01:04:36.125Z,12.90
2022-09-13T01:08:01.813Z,19.30
2022-09-13T01:11:52.042Z,17.00
2022-09-13T01:15:39.562Z,17.70
2022-09-13T01:19:27.186Z,21.70
2022-09-13T01:23:24.728Z,21.80
2022-09-13T01:27:27.185Z,17.30
2022-09-13T01:31:15.111Z,16.90
2022-09-13T01:34:48.388Z,13.30
2022-09-13T01:38:19.655Z,17.90
2022-09-13T01:41:53.462Z,32.40
2022-09-13T01:45:33.499Z,16.00
2022-09-13T01:49:36.074Z,12.90
2022-09-13T01:53:35.700Z,27.40
2022-09-13T01:57:12.990Z,18.70
2022-09-13T02:00:54.063Z,17.60
2022-09-13T02:04:59.649Z,25.10
2022-09-13T02:08:16.026Z,18.30
2022-09-13T02:12:06.381Z,22.30
2022-09-13T02:15:42.529Z,28.20
2022-09-13T02:19:30.092Z,20.10
2022-09-13T02:22:53.461Z,23.20
2022-09-13T02:26:26.255Z,42.10
2022-09-13T02:30:13.767Z,39.30
2022-09-13T02:34:01.211Z,43.80
2022-09-13T02:37:07.892Z,57.60
2022-09-13T02:40:40.558Z,58.60
2022-09-13T02:44:05.528Z,55.80
2022-09-13T02:48:04.643Z,48.10
2022-09-13T02:52:17.994Z,41.90
2022-09-13T02:56:11.188Z,26.20
2022-09-13T02:59:58.873Z,24.10
2022-09-13T03:03:28.594Z,27.00
2022-09-13T03:06:50.570Z,23.80
2022-09-13T03:09:39.554Z,23.50
2022-09-13T03:12:43.738Z,24.00
2022-09-13T03:16:40.268Z,28.70
2022-09-13T03:20:33.592Z,28.60
2022-09-13T03:24:30.547Z,24.50
2022-09-13T03:28:32.870Z,21.40
2022-09-13T03:32:28.348Z,19.70
2022-09-13T03:36:24.756Z,24.10
2022-09-13T03:40:01.431Z,26.00
2022-09-13T03:44:06.794Z,21.70
2022-09-13T03:47:54.426Z,19.00
2022-09-13T03:51:41.910Z,30.00
2022-09-13T03:55:20.620Z,20.70
2022-09-13T03:58:39.400Z,22.10
2022-09-13T04:02:11.864Z,20.60
2022-09-13T04:05:52.317Z,27.80
2022-09-13T04:09:40.222Z,27.30
2022-09-13T04:13:04.026Z,23.40
2022-09-13T04:16:44.018Z,32.50
2022-09-13T04:20:31.651Z,27.00
2022-09-13T04:24:19.476Z,26.80
2022-09-13T04:28:08.943Z,26.60
2022-09-13T04:31:56.707Z,26.70
2022-09-13T04:35:44.499Z,26.00
2022-09-13T04:39:17.339Z,26.40
2022-09-13T04:42:58.281Z,26.10
2022-09-13T04:46:06.367Z,30.30
2022-09-13T04:49:42.606Z,32.30
2022-09-13T04:53:22.898Z,31.70
2022-09-13T04:57:10.398Z,33.80
2022-09-13T05:00:50.992Z,36.40
2022-09-13T05:04:11.518Z,35.20
2022-09-13T05:07:49.254Z,38.80
2022-09-13T05:11:11.380Z,34.70
2022-09-13T05:14:51.553Z,41.70
2022-09-13T05:18:32.061Z,36.40
2022-09-13T05:22:02.824Z,35.20
2022-09-13T05:25:50.051Z,34.00
2022-09-13T05:29:07.033Z,33.60
2022-09-13T05:32:53.448Z,38.70
2022-09-13T05:36:39.689Z,25.40
2022-09-13T05:40:13.748Z,28.40
2022-09-13T05:43:41.598Z,33.50
2022-09-13T05:47:23.355Z,31.70
2022-09-13T05:51:10.819Z,30.40
2022-09-13T05:54:48.561Z,32.10
2022-09-13T05:58:16.464Z,35.00
2022-09-13T06:01:29.501Z,33.90
2022-09-13T06:05:07.574Z,26.10
2022-09-13T06:08:47.768Z,25.40
2022-09-13T06:12:35.371Z,27.80
2022-09-13T06:16:22.582Z,26.30
2022-09-13T06:20:10.716Z,30.60
2022-09-13T06:23:51.811Z,30.60
2022-09-13T06:27:22.867Z,30.20
2022-09-13T06:30:58.008Z,31.80
2022-09-13T06:34:36.508Z,28.10
2022-09-13T06:38:04.013Z,33.30
2022-09-13T06:41:51.432Z,29.40
2022-09-13T06:45:31.687Z,28.90
2022-09-13T06:49:19.303Z,25.70
2022-09-13T06:53:06.814Z,20.90
2022-09-13T06:56:52.137Z,24.30
2022-09-13T07:00:38.600Z,20.40
2022-09-13T07:04:26.271Z,19.30
2022-09-13T07:08:13.942Z,17.10
2022-09-13T07:12:01.403Z,16.30
2022-09-13T07:15:49.297Z,20.40
2022-09-13T07:19:36.846Z,17.70
2022-09-13T07:23:24.361Z,12.70
2022-09-13T07:27:12.018Z,16.50
2022-09-13T07:30:59.668Z,14.10
2022-09-13T07:34:47.268Z,13.60
2022-09-13T07:38:34.797Z,13.10
2022-09-13T07:42:22.436Z,14.40
2022-09-13T07:46:09.845Z,14.50
2022-09-13T07:49:57.533Z,12.00
2022-09-13T07:53:45.610Z,11.00
2022-09-13T07:57:33.094Z,11.90
2022-09-13T08:01:20.667Z,11.60
2022-09-13T08:05:08.276Z,13.90
2022-09-13T08:08:55.977Z,10.40
2022-09-13T08:12:47.477Z,10.50
2022-09-13T08:16:35.600Z,11.50
2022-09-13T08:20:24.464Z,8.90
2022-09-13T08:24:12.602Z,9.70
2022-09-13T08:28:00.782Z,12.30
2022-09-13T08:31:51.732Z,10.50
2022-09-13T08:35:38.785Z,10.60
2022-09-13T08:39:29.274Z,12.50
2022-09-13T08:43:21.174Z,11.00
2022-09-13T08:47:09.089Z,11.50
2022-09-13T08:51:06.456Z,13.70
2022-09-13T08:54:57.959Z,10.40
2022-09-13T08:58:45.859Z,15.10
2022-09-13T09:02:45.613Z,12.10
2022-09-13T09:06:33.273Z,10.90
2022-09-13T09:10:32.860Z,11.50
2022-09-13T09:14:18.518Z,14.00
2022-09-13T09:18:07.164Z,17.50
2022-09-13T09:21:57.350Z,13.10
2022-09-13T09:25:47.936Z,17.30
2022-09-13T09:29:35.849Z,11.40
2022-09-13T09:33:42.622Z,18.10
2022-09-13T09:37:39.341Z,16.10
2022-09-13T09:41:26.977Z,12.10
2022-09-13T09:45:18.014Z,13.10
2022-09-13T09:49:05.793Z,14.90
2022-09-13T09:52:53.983Z,11.10
2022-09-13T09:56:46.830Z,10.90
2022-09-13T10:00:34.599Z,12.60
2022-09-13T10:04:25.248Z,19.10
2022-09-13T10:08:15.673Z,13.00
2022-09-13T10:12:03.488Z,10.80
2022-09-13T10:15:57.276Z,12.20
2022-09-13T10:19:57.254Z,14.00
2022-09-13T10:23:59.707Z,19.70
2022-09-13T10:27:37.361Z,10.60
2022-09-13T10:31:34.690Z,10.60
2022-09-13T10:35:31.583Z,15.20
2022-09-13T10:39:28.405Z,10.60
2022-09-13T10:43:16.601Z,12.30
2022-09-13T10:47:04.609Z,10.60
2022-09-13T10:50:52.348Z,10.00
2022-09-13T10:54:54.588Z,10.50
2022-09-13T10:58:42.149Z,9.30
2022-09-13T11:02:33.375Z,9.00
2022-09-13T11:06:36.126Z,8.80
2022-09-13T11:10:29.854Z,11.20
2022-09-13T11:14:44.801Z,11.10
2022-09-13T11:18:29.355Z,14.30
2022-09-13T11:22:27.843Z,9.90
2022-09-13T11:26:30.126Z,10.90
2022-09-13T11:30:30.005Z,10.80
2022-09-13T11:34:23.913Z,12.00
2022-09-13T11:38:23.439Z,14.20
2022-09-13T11:42:13.854Z,12.10
2022-09-13T11:46:13.615Z,11.10
2022-09-13T11:50:14.246Z,13.30
2022-09-13T11:54:02.641Z,12.20
2022-09-13T11:57:59.189Z,12.40
2022-09-13T12:01:47.595Z,11.50
2022-09-13T12:05:41.708Z,12.10
2022-09-13T12:09:29.951Z,12.50
2022-09-13T12:13:18.044Z,17.30
2022-09-13T12:17:18.046Z,16.00
2022-09-13T12:20:57.503Z,16.00
2022-09-13T12:25:02.728Z,16.20
2022-09-13T12:28:46.191Z,14.20
2022-09-13T12:32:06.066Z,13.90
2022-09-13T12:35:56.866Z,14.10
2022-09-13T12:40:00.025Z,14.30
2022-09-13T12:44:21.298Z,11.50
2022-09-13T12:48:27.091Z,12.20
2022-09-13T12:52:26.903Z,13.80
2022-09-13T12:56:45.887Z,11.60
2022-09-13T13:00:55.213Z,14.50
2022-09-13T13:04:55.867Z,10.70
2022-09-13T13:08:38.859Z,15.40
2022-09-13T13:12:27.526Z,11.40
2022-09-13T13:16:15.686Z,11.40
2022-09-13T13:20:09.706Z,12.80
2022-09-13T13:24:04.580Z,12.30
2022-09-13T13:28:00.454Z,12.30
2022-09-13T13:32:10.190Z,12.40
2022-09-13T13:36:09.627Z,12.40
2022-09-13T13:40:03.662Z,11.50
2022-09-13T13:43:50.044Z,9.70
2022-09-13T13:47:43.417Z,10.90
2022-09-13T13:51:29.686Z,12.40
2022-09-13T13:55:32.566Z,11.80
2022-09-13T13:59:29.014Z,11.40
2022-09-13T14:03:33.266Z,11.90
2022-09-13T14:07:24.012Z,10.40
2022-09-13T14:11:11.928Z,10.70
2022-09-13T14:15:01.659Z,18.20
2022-09-13T14:18:54.703Z,10.70
2022-09-13T14:22:46.304Z,10.90
2022-09-13T14:26:25.027Z,11.00
2022-09-13T14:30:12.873Z,10.50
2022-09-13T14:34:08.241Z,9.80
2022-09-13T14:37:58.903Z,10.00
2022-09-13T14:41:38.865Z,9.30
2022-09-13T14:45:19.293Z,10.60
2022-09-13T14:49:07.660Z,11.90
2022-09-13T14:53:04.952Z,16.40
2022-09-13T14:56:59.222Z,11.00
2022-09-13T15:00:43.438Z,12.90
2022-09-13T15:04:31.494Z,14.10
2022-09-13T15:08:25.443Z,11.40
2022-09-13T15:12:21.306Z,12.50
2022-09-13T15:16:07.783Z,11.20
2022-09-13T15:19:54.597Z,13.10
2022-09-13T15:23:42.976Z,13.60
2022-09-13T15:27:31.970Z,12.10
2022-09-13T15:31:22.671Z,17.40
2022-09-13T15:35:18.242Z,13.00
2022-09-13T15:39:37.383Z,15.10
2022-09-13T15:43:25.230Z,14.80
2022-09-13T15:47:13.972Z,17.00
2022-09-13T15:51:03.676Z,14.90
2022-09-13T15:54:53.723Z,14.90
2022-09-13T15:58:42.372Z,12.10
2022-09-13T16:02:30.522Z,13.50
2022-09-13T16:06:19.570Z,12.90
2022-09-13T16:10:22.907Z,12.00
2022-09-13T16:14:11.389Z,11.70
2022-09-13T16:17:59.570Z,14.50
2022-09-13T16:21:32.078Z,12.80
2022-09-13T16:25:09.802Z,15.20
2022-09-13T16:28:57.708Z,14.50
2022-09-13T16:32:45.987Z,12.40
2022-09-13T16:36:35.049Z,13.50
2022-09-13T16:40:16.923Z,14.40
2022-09-13T16:43:47.963Z,19.30
2022-09-13T16:47:29.424Z,17.60
2022-09-13T16:51:19.928Z,15.30
2022-09-13T16:55:07.898Z,13.10
2022-09-13T16:58:55.219Z,20.10
2022-09-13T17:02:37.800Z,15.10
2022-09-13T17:06:45.602Z,15.20
2022-09-13T17:10:37.330Z,14.90
2022-09-13T17:14:27.780Z,14.80
2022-09-13T17:18:17.638Z,15.10
2022-09-13T17:22:09.063Z,15.90
2022-09-13T17:26:04.867Z,15.70
2022-09-13T17:29:52.740Z,14.70
2022-09-13T17:33:40.758Z,15.20
2022-09-13T17:37:28.799Z,19.00
2022-09-13T17:41:16.805Z,19.20
2022-09-13T17:45:04.603Z,16.70
2022-09-13T17:48:52.313Z,16.90
2022-09-13T17:52:40.941Z,14.90
2022-09-13T17:56:22.457Z,18.40
2022-09-13T18:00:14.290Z,19.80
2022-09-13T18:04:03.170Z,20.00
2022-09-13T18:07:52.451Z,16.40
2022-09-13T18:11:49.500Z,14.10
2022-09-13T18:15:36.272Z,17.10
2022-09-13T18:19:44.231Z,14.60
2022-09-13T18:23:33.104Z,19.00
2022-09-13T18:27:25.224Z,17.30
2022-09-13T18:31:15.822Z,20.00
2022-09-13T18:34:47.642Z,20.60
2022-09-13T18:38:35.628Z,22.30
2022-09-13T18:42:24.484Z,18.10
2022-09-13T18:46:12.559Z,20.80
2022-09-13T18:49:44.063Z,18.10
2022-09-13T18:53:34.944Z,18.40
2022-09-13T18:57:23.765Z,18.50
2022-09-13T19:05:32.915Z,20.70
2022-09-13T19:24:17.254Z,18.80
2022-09-13T19:27:59.011Z,23.00
2022-09-13T19:31:51.322Z,19.30
2022-09-13T19:35:33.175Z,26.40
2022-09-13T19:39:04.313Z,22.70
2022-09-13T19:42:33.068Z,20.30
2022-09-13T19:46:25.787Z,20.00
2022-09-13T19:50:04.572Z,20.10
2022-09-13T19:53:57.335Z,17.40
2022-09-13T19:57:46.248Z,20.30
2022-09-13T20:01:41.429Z,18.30
2022-09-13T20:05:27.435Z,26.00
2022-09-13T20:09:16.377Z,27.30
2022-09-13T20:12:45.067Z,20.40
2022-09-13T20:16:33.817Z,21.90
2022-09-13T20:20:22.051Z,23.90
2022-09-13T20:24:01.204Z,22.20
2022-09-13T20:27:48.768Z,14.10
2022-09-13T20:31:36.481Z,17.40
2022-09-13T20:35:09.643Z,27.00
2022-09-13T20:38:51.518Z,25.30
2022-09-13T20:42:39.847Z,22.40
2022-09-13T20:46:27.568Z,19.60
2022-09-13T20:50:14.370Z,29.40
2022-09-13T20:54:02.039Z,20.30
2022-09-13T20:57:43.713Z,29.20
2022-09-13T21:01:31.941Z,29.30
2022-09-13T21:05:19.719Z,19.40
2022-09-13T21:09:07.649Z,13.60
2022-09-13T21:12:55.299Z,21.50
2022-09-13T21:16:42.587Z,14.90
2022-09-13T21:20:30.233Z,13.90
2022-09-13T21:24:18.380Z,16.90
2022-09-13T21:28:05.893Z,19.70
2022-09-13T21:31:59.297Z,23.50
2022-09-13T21:35:46.982Z,20.60
2022-09-13T21:39:27.253Z,22.60
2022-09-13T21:43:14.589Z,21.20
2022-09-13T21:47:07.872Z,20.30
2022-09-13T21:50:50.647Z,18.90
2022-09-13T21:54:28.299Z,17.10
2022-09-13T21:58:15.848Z,13.40
2022-09-13T22:02:06.500Z,16.70
2022-09-13T22:05:53.993Z,14.60
2022-09-13T22:09:33.463Z,17.40
2022-09-13T22:13:21.695Z,14.50
2022-09-13T22:17:14.505Z,18.10
2022-09-13T22:21:02.172Z,19.70
2022-09-13T22:24:39.625Z,15.60
2022-09-13T22:28:27.457Z,15.80
2022-09-13T22:32:20.374Z,22.20
2022-09-13T22:36:10.696Z,16.50
2022-09-13T22:39:58.298Z,24.20
2022-09-13T22:43:45.778Z,23.00
2022-09-13T22:47:33.221Z,27.00
2022-09-13T22:51:11.312Z,19.90
2022-09-13T22:54:59.024Z,17.10
2022-09-13T22:58:46.759Z,14.90
2022-09-13T23:02:34.538Z,25.20
2022-09-13T23:06:15.244Z,20.80
2022-09-13T23:10:02.702Z,24.70
2022-09-13T23:13:50.213Z,28.40
2022-09-13T23:17:37.830Z,26.30
2022-09-13T23:21:18.828Z,25.60
2022-09-13T23:25:06.653Z,26.80
2022-09-13T23:28:54.438Z,28.60
2022-09-13T23:32:42.818Z,34.80
2022-09-13T23:36:30.321Z,26.50
2022-09-13T23:40:19.535Z,28.40
2022-09-13T23:43:57.236Z,25.20
2022-09-13T23:47:21.479Z,21.60
2022-09-13T23:51:08.993Z,26.20
2022-09-13T23:54:57.170Z,28.00
2022-09-13T23:58:45.162Z,22.40
